URKA Airport Information

Runway Information
Runway 04 Length 8202 ft width 138 ft
Elevation 137 ft Threshold 0 ft Heading 42
Runway 22 Length 8202 ft Width 138 ft
Elevation 174 ft Threshold 0 ft Heading 222
Airport Frequencies
Type APP Name ANAPA APP Frequency 118.7 MHZ
Type TWR Name ANAPA KRUG Frequency 119.8 MHZ
Airport Navaids
Type NDB Name Anapa Frequency 443 KHZ
Type NDB Name Anapa Frequency 443 KHZ
Airport Weather Information & NOTAM
ADDS - METARS form results

(0809 UTC 08 December 2019)
Data provider http://aviationweather.gov/metar/data/
 
METAR text: URKA 080800Z 14002MPS CAVOK 09/07 Q1015 R22/010065 NOSIG RMK QFE756/1008
Conditions at: URKA (ANAPA/VITIAZEVO , RU) observed 0800 UTC 08 December 2019
Temperature: 9.0°C (48°F)
Dewpoint: 7.0°C (45°F) [RH = 87%]
Pressure (altimeter): 29.97 inches Hg (1015.0 mb)
Winds: from the SE (140 degrees) at 5 MPH (4 knots; 2.1 m/s)
Visibility: 6 or more miles (10+ km)
Ceiling: ceiling and visibility are OK
Clouds: unknown
Weather: no significant weather observed at this time

METAR text: URKA 080730Z 14002MPS CAVOK 08/06 Q1015 R22/010065 NOSIG RMK QFE756/1008
Conditions at: URKA (ANAPA/VITIAZEVO , RU) observed 0730 UTC 08 December 2019
Temperature: 8.0°C (46°F)
Dewpoint: 6.0°C (43°F) [RH = 87%]
Pressure (altimeter): 29.97 inches Hg (1015.0 mb)
Winds: from the SE (140 degrees) at 5 MPH (4 knots; 2.1 m/s)
Visibility: 6 or more miles (10+ km)
Ceiling: ceiling and visibility are OK
Clouds: unknown
Weather: no significant weather observed at this time

Forecast for: URKA (ANAPA/VITIAZEVO , RU)
Text: TAF URKA 080456Z 0806/0906 13003MPS 9999 BKN020
Forecast period: 0600 to 1000 UTC 08 December 2019
Forecast type: FROM: standard forecast or significant change
Winds: from the SE (130 degrees) at 7 MPH (6 knots; 3.1 m/s)
Visibility: 6 or more miles 10+ km)
Ceiling: 2000 feet AGL
Clouds: broken clouds at 2000 feet AGL
Weather: no significant weather forecast for this period
Text: BECMG 0810/0812 BKN020CB
Forecast period: 1000 UTC 08 December 2019 to 0600 UTC 09 December 2019
Forecast type: BECOMING: Conditions expected to become as follows by 1200 UTC 08 December 2019
Winds: from the SE (130 degrees) at 7 MPH (6 knots; 3.1 m/s)
Visibility: 6 or more miles 10+ km)
Ceiling: 2000 feet AGL
Clouds: broken clouds at 2000 feet AGL
Weather: no significant weather forecast for this period
Text: TEMPO 0812/0906 18003G08MPS 3100 -SHRA BR SCT011 BKN030CB
Forecast period: 1200 UTC 08 December 2019 to 0600 UTC 09 December 2019
Forecast type: TEMPORARY: The following changes expected for less than half the time period
Winds: from the S (180 degrees) at 7 MPH (6 knots; 3.1 m/s)
gusting to 18 MPH (16 knots; 8.2 m/s)
Visibility: 1.93 miles (3.11 km)
Ceiling: 3000 feet AGL
Clouds: scattered clouds at 1100 feet AGL
broken clouds at 3000 feet AGL
Weather: -SHRA BR  (light rain showers, mist)